Vancouver, WA

4:35 AM PDT on August 28, 2014 (GMT -0700)
Fruit Valley | Change Station
CLOSE
Current Station
Personal Weather Station
Location: Vancouver, WA
Elevation: 37 ft
Nearby Weather Stations

Elev 37 ft 45.65 °N, 122.69 °W | Updated 2 seconds ago

Clear
Clear
60.7 °F
Feels Like 60.7 °F
N
2.0
Wind Variable Wind from North
Gusts 4.0 mph

Today
High -- | Low -- °F
--% Chance of Precip.
Yesterday
High -- | Low -- °F
Precip. -- in
6:27 AM 7:55 PM
Waxing Crescent, 8% visible
Pressure 30.08 in
Visibility 10.0 miles
Clouds Clear
Dew Point 59 °F
Humidity 95%
Rainfall 0.00 in
Snow Depth Not available.
UV 0 out of 12
Pollen 3.80 out of 12
Air Quality Not available.
Flu Activity Not available.
METAR KVUO 281053Z AUTO 00000KT 10SM CLR 16/12 A3007 RMK AO2 SLP184 T01560122

More Conditions Fewer Conditions

Pressure 30.08 in
Visibility 10.0 miles
Clouds Clear
Dew Point 59 °F
Humidity 95%
Rainfall 0.00 in
Snow Depth Not available.
UV 0 out of 12
Pollen 3.80 out of 12
Air Quality Not available.
Flu Activity Not available.
METAR KVUO 281053Z AUTO 00000KT 10SM CLR 16/12 A3007 RMK AO2 SLP184 T01560122

More Conditions Fewer Conditions

10-Day Weather Forecast

Almanac

Astronomy

Aug. 28, 2014 Rise Set
Actual Time 6:27 AM PDT 7:55 PM PDT
Civil Twilight 5:56 AM PDT 8:26 PM PDT
Nautical Twilight 5:18 AM PDT 9:04 PM PDT
Astronomical Twilight 4:38 AM PDT 9:44 PM PDT
Moon 9:35 AM PDT 9:10 PM PDT
Length of Visible Light 14h 30m
Length of Day
13h 28m
Tomorrow will be 3m 4s shorter.
Waxing Crescent, 8% of the Moon is Illuminated
Today
Waxing Crescent
Sep 2
First Quarter
Sep 8
Full
Sep 15
Last Quarter
Sep 24
New

Today's Extremes

State Highs State Lows

Community

WunderPhotos

Upload Photos

1,747,928 photos uploaded!

Nearby

Snow Depth

Station Depth Elevation
June Lake 0 in 3340 ft
Swift Creek 1 in 3770 ft
Spencer Meadow 0 in 3400 ft
Surprise Lakes 1 in 4250 ft
Lone Pine 0 in 3800 ft

Earthquake Activity

City Distance Mag. Time & Date
No recent earthquake activity has been reported nearby.
Minimum magnitude displayed is 2.5.

Coastal Water Temperatures

Place Temperature
No Stations Reporting

Nearby Weather Stations